KSUX/SUX METAR and TAF weather

Enter ICAO airport designator
Station Type Date Time Source
KSUX METAR 2024/07/24 11:52 UTC NOAA

KSUX 241152Z 11004KT 5SM BR SCT060 19/18 A3009 RMK AO2 SLP184 T01940183 10206 20189 51009 $


Station Type Date Time Source
KSUX Decoded METAR 2024/07/24 11:52 UTC NOAA

SIOUX GATEWAY AIRPORT, IA, United States (KSUX) 42-23N 96-23W 338M
Jul 24, 2024 - 07:52 AM EDT / 2024.07.24 1152 UTC
Wind: from the ESE (110 degrees) at 5 MPH (4 KT):0
Visibility: 5 mile(s):0
Sky conditions: partly cloudy
Weather: mist
Temperature: 66.9 F (19.4 C)
Dew Point: 64.9 F (18.3 C)
Relative Humidity: 93%
Pressure (altimeter): 30.09 in. Hg (1018 hPa)
Pressure tendency: 0.03 inches (0.9 hPa) higher than three hours ago
ob: KSUX 241152Z 11004KT 5SM BR SCT060 19/18 A3009 RMK AO2 SLP184 T01940183 10206 20189 51009
cycle: 12

Station Type Date Time Source
KSUX TAF 2024/07/24 12:24 UTC NOAA